Time;durP1;ratioP1;P1;durP2;ratioP2;P2;SDS_P1;SDS_P2;PMS_P1;PMS_P2;Temp;Humidity;BMP_temperature;BMP_pressure;BME280_temperature;BME280_humidity;BME280_pressure;Samples;Min_cycle;Max_cycle;Signal;HPM_P1;HPM_P2
2022/06/25 00:01:02;;;;;;;;;3.00;1.00;;;;;22.89;86.39;100670.59;5098494;27;47219;-77
2022/06/25 00:03:28;;;;;;;;;1.67;1.00;;;;;22.88;86.45;100663.44;5098060;27;45359;-76
2022/06/25 00:05:53;;;;;;;;;1.00;1.00;;;;;22.88;86.09;100670.66;5097741;27;65427;-77
2022/06/25 00:08:18;;;;;;;;;2.00;0.33;;;;;22.86;86.92;100656.38;5097831;27;49602;-76
2022/06/25 00:10:44;;;;;;;;;1.00;1.00;;;;;22.86;86.31;100661.75;5097031;27;66562;-75
2022/06/25 00:13:09;;;;;;;;;2.67;0.00;;;;;22.83;86.19;100662.75;5097906;27;62976;-76
2022/06/25 00:15:34;;;;;;;;;3.00;1.00;;;;;22.83;85.96;100665.44;5097265;27;60628;-77
2022/06/25 00:18:00;;;;;;;;;3.00;1.00;;;;;22.86;86.28;100668.00;5098854;27;45415;-77
2022/06/25 00:20:26;;;;;;;;;1.00;1.00;;;;;22.82;86.66;100655.59;5097074;27;68675;-76
2022/06/25 00:22:51;;;;;;;;;1.00;1.00;;;;;22.81;86.41;100658.38;5098295;27;52680;-76
2022/06/25 00:25:17;;;;;;;;;1.00;1.00;;;;;22.79;86.79;100658.41;5097560;27;53513;-76
2022/06/25 00:27:42;;;;;;;;;1.00;1.00;;;;;22.81;86.71;100663.75;5098149;27;45613;-76
2022/06/25 00:30:09;;;;;;;;;3.00;2.00;;;;;22.82;86.58;100666.38;5097118;27;67498;-76
2022/06/25 00:32:35;;;;;;;;;4.00;1.33;;;;;22.82;86.77;100654.75;5092670;27;45279;-76
2022/06/25 00:35:02;;;;;;;;;1.00;1.00;;;;;22.81;86.76;100663.75;5098538;27;45520;-77
2022/06/25 00:37:27;;;;;;;;;1.67;1.67;;;;;22.78;86.87;100653.97;5098144;27;47093;-77
2022/06/25 00:39:53;;;;;;;;;1.00;1.00;;;;;22.80;87.00;100659.28;5096681;27;64303;-77
2022/06/25 00:42:18;;;;;;;;;1.33;1.00;;;;;22.79;86.93;100658.41;5098083;27;45458;-77
2022/06/25 00:44:44;;;;;;;;;5.00;1.00;;;;;22.81;87.38;100656.56;5098218;27;45220;-76
2022/06/25 00:47:12;;;;;;;;;4.00;1.00;;;;;22.82;87.41;100666.38;5098070;27;45545;-77
2022/06/25 00:49:38;;;;;;;;;1.00;1.00;;;;;22.82;87.71;100661.00;5078752;27;47615;-77
2022/06/25 00:52:12;;;;;;;;;3.00;2.00;;;;;22.82;87.37;100665.50;5097817;27;45405;-76
2022/06/25 00:54:39;;;;;;;;;1.00;1.00;;;;;22.81;87.78;100671.84;5098249;27;45328;-77
2022/06/25 00:57:07;;;;;;;;;0.67;0.67;;;;;22.83;88.11;100675.31;5097669;27;45311;-77
2022/06/25 00:59:54;;;;;;;;;2.67;1.33;;;;;22.80;87.78;100661.97;5097458;27;46611;-77
2022/06/25 01:02:22;;;;;;;;;3.00;1.67;;;;;22.78;88.42;100664.75;5097111;27;45225;-77
2022/06/25 01:04:51;;;;;;;;;2.00;2.00;;;;;22.79;88.42;100666.50;5097932;27;45438;-76
2022/06/25 01:07:17;;;;;;;;;2.00;2.00;;;;;22.81;88.73;100686.16;5079551;27;45573;-77
2022/06/25 01:09:42;;;;;;;;;2.00;1.67;;;;;22.79;89.50;100674.56;5094999;27;47340;-76
2022/06/25 01:12:08;;;;;;;;;1.00;1.00;;;;;22.74;90.43;100680.19;5079120;27;45378;-76
2022/06/25 01:14:34;;;;;;;;;2.00;2.00;;;;;22.71;89.39;100685.66;5097954;27;45334;-77
2022/06/25 01:17:04;;;;;;;;;2.00;2.00;;;;;22.70;89.53;100683.94;5097917;27;45313;-77
2022/06/25 01:19:29;;;;;;;;;2.33;2.00;;;;;22.68;90.58;100669.63;5097679;27;45390;-77
2022/06/25 01:21:59;;;;;;;;;5.67;2.00;;;;;22.68;90.27;100677.72;5094766;27;58817;-77
2022/06/25 01:24:24;;;;;;;;;2.67;2.00;;;;;22.67;90.24;100677.78;5098419;27;45232;-76
2022/06/25 01:26:50;;;;;;;;;2.00;1.00;;;;;22.68;90.50;100676.84;5097353;27;57353;-76
2022/06/25 01:29:15;;;;;;;;;2.00;2.00;;;;;22.66;90.61;100684.13;5097435;27;47339;-76
2022/06/25 01:31:40;;;;;;;;;4.00;0.67;;;;;22.63;91.04;100668.94;5096581;27;62306;-76
2022/06/25 01:34:06;;;;;;;;;1.00;1.00;;;;;22.62;90.91;100680.66;5097421;27;64890;-77
2022/06/25 01:36:31;;;;;;;;;3.00;2.00;;;;;22.59;91.25;100675.44;5098263;27;45518;-76
2022/06/25 01:38:56;;;;;;;;;3.00;1.67;;;;;22.55;91.65;100675.59;5097658;27;45405;-76
2022/06/25 01:41:22;;;;;;;;;3.00;2.00;;;;;22.52;91.58;100671.22;5096966;27;62303;-76
2022/06/25 01:43:47;;;;;;;;;2.67;2.67;;;;;22.54;91.75;100679.25;5098224;27;45387;-76
2022/06/25 01:46:13;;;;;;;;;5.00;3.00;;;;;22.51;91.37;100682.03;5097569;27;45593;-76
2022/06/25 01:48:39;;;;;;;;;3.00;2.00;;;;;22.50;91.61;100678.47;5079041;27;45630;-76
2022/06/25 01:51:04;;;;;;;;;1.00;1.00;;;;;22.50;91.56;100681.19;5095735;27;63995;-76
2022/06/25 01:53:30;;;;;;;;;2.67;2.67;;;;;22.48;91.78;100686.63;5096411;27;60164;-77
2022/06/25 01:55:55;;;;;;;;;2.00;2.00;;;;;22.48;92.21;100691.13;5078698;27;45498;-76
2022/06/25 01:58:21;;;;;;;;;2.00;2.00;;;;;22.49;92.57;100691.06;5096895;27;45772;-76
2022/06/25 02:00:47;;;;;;;;;1.00;1.00;;;;;22.46;92.46;100688.47;5096082;27;45520;-76
2022/06/25 02:03:14;;;;;;;;;2.00;2.00;;;;;22.44;92.87;100679.63;5096082;27;60518;-77
2022/06/25 02:05:58;;;;;;;;;1.67;1.67;;;;;22.45;92.91;100689.44;5096327;27;45572;-76
2022/06/25 02:08:44;;;;;;;;;2.00;1.33;;;;;22.45;93.45;100686.75;5096290;27;47389;-76
2022/06/25 02:11:09;;;;;;;;;4.67;2.00;;;;;22.44;93.40;100693.06;5094508;27;45332;-76
2022/06/25 02:13:35;;;;;;;;;5.00;1.00;;;;;22.43;94.04;100699.38;5096462;27;45541;-77
2022/06/25 02:16:01;;;;;;;;;3.00;2.00;;;;;22.38;94.18;100696.00;5096205;27;45204;-76
2022/06/25 02:18:26;;;;;;;;;5.33;2.33;;;;;22.31;95.00;100689.09;5095756;27;45687;-76
2022/06/25 02:20:52;;;;;;;;;1.00;1.00;;;;;22.31;94.95;100698.97;5096197;27;45247;-77
2022/06/25 02:23:18;;;;;;;;;2.33;1.67;;;;;22.29;95.28;100703.56;5078004;27;45517;-77
2022/06/25 02:25:44;;;;;;;;;3.00;2.00;;;;;22.27;96.06;100700.06;5088287;27;45583;-76
2022/06/25 02:28:10;;;;;;;;;2.00;2.00;;;;;22.19;95.99;100690.47;5077742;27;46625;-76
2022/06/25 02:30:35;;;;;;;;;3.00;1.00;;;;;22.13;98.06;100693.41;5095899;27;45539;-76
2022/06/25 02:33:01;;;;;;;;;2.00;2.00;;;;;22.06;98.35;100693.69;5096166;27;45583;-76
2022/06/25 02:35:27;;;;;;;;;2.33;1.00;;;;;22.00;99.42;100704.63;5096154;27;45452;-77
2022/06/25 02:37:52;;;;;;;;;2.33;2.00;;;;;21.94;100.00;100698.59;5096189;27;46219;-76
2022/06/25 02:40:18;;;;;;;;;1.00;1.00;;;;;21.90;100.00;100696.06;5098189;27;60383;-76
2022/06/25 02:42:43;;;;;;;;;6.00;1.67;;;;;21.86;100.00;100707.88;5099366;27;59918;-76
2022/06/25 02:45:09;;;;;;;;;3.67;2.00;;;;;21.83;100.00;100705.28;5100400;27;45307;-76
2022/06/25 02:47:35;;;;;;;;;4.00;2.00;;;;;21.76;100.00;100701.97;5099591;27;46695;-76
2022/06/25 02:50:00;;;;;;;;;2.00;2.00;;;;;21.71;100.00;100703.94;5099725;27;45256;-75
2022/06/25 02:52:26;;;;;;;;;1.00;1.00;;;;;21.68;100.00;100699.56;5099417;27;48864;-76
2022/06/25 02:54:51;;;;;;;;;3.00;1.00;;;;;21.67;100.00;100704.97;5100267;27;45503;-77
2022/06/25 03:00:01;;;;;;;;;1.00;1.00;;;;;21.66;100.00;100697.84;5093598;27;45505;-76
2022/06/25 03:02:27;;;;;;;;;3.33;2.00;;;;;21.68;100.00;100709.44;5099130;27;45326;-76
2022/06/25 03:04:52;;;;;;;;;3.00;2.00;;;;;21.69;100.00;100692.38;5081396;27;45477;-76
2022/06/25 03:07:18;;;;;;;;;2.00;1.00;;;;;21.69;100.00;100695.06;5080655;27;46712;-76
2022/06/25 03:09:43;;;;;;;;;1.00;1.00;;;;;21.70;100.00;100695.00;5099228;27;45869;-76
2022/06/25 03:12:09;;;;;;;;;2.33;1.00;;;;;21.71;100.00;100695.88;5099125;27;62272;-77
2022/06/25 03:14:34;;;;;;;;;1.00;1.00;;;;;21.71;100.00;100696.75;5080931;27;54821;-76
2022/06/25 03:16:59;;;;;;;;;3.33;1.00;;;;;21.67;100.00;100697.78;5099011;27;66182;-76
2022/06/25 03:19:25;;;;;;;;;3.00;2.00;;;;;21.68;100.00;100704.94;5099538;27;54381;-77
2022/06/25 03:21:50;;;;;;;;;1.00;1.00;;;;;21.67;100.00;100696.91;5080302;27;58288;-76
2022/06/25 03:24:15;;;;;;;;;1.00;1.00;;;;;21.69;100.00;100697.75;5099469;27;45517;-77
2022/06/25 03:26:41;;;;;;;;;0.67;0.67;;;;;21.71;100.00;100702.13;5098665;27;64597;-76
2022/06/25 03:29:06;;;;;;;;;1.00;1.00;;;;;21.72;100.00;100705.69;5098948;27;45363;-76
2022/06/25 03:31:32;;;;;;;;;1.67;1.00;;;;;21.68;100.00;100698.69;5097925;27;48570;-76
2022/06/25 03:33:57;;;;;;;;;2.33;0.00;;;;;21.67;100.00;100697.78;5099653;27;45451;-76
2022/06/25 03:36:22;;;;;;;;;0.67;0.00;;;;;21.69;100.00;100703.13;5098146;27;63137;-76
2022/06/25 03:38:48;;;;;;;;;1.00;1.00;;;;;21.68;100.00;100704.06;5098212;27;65707;-77
2022/06/25 03:44:00;;;;;;;;;0.67;0.67;;;;;21.66;100.00;100716.66;5092636;27;45590;-76
2022/06/25 03:46:26;;;;;;;;;2.33;0.00;;;;;21.63;100.00;100717.66;5098657;27;47384;-77
2022/06/25 03:48:51;;;;;;;;;0.00;0.00;;;;;21.64;100.00;100716.72;5098572;27;61152;-76
2022/06/25 03:51:17;;;;;;;;;0.00;0.00;;;;;21.65;100.00;100718.47;5096912;27;65033;-77
2022/06/25 03:53:42;;;;;;;;;0.00;0.00;;;;;21.66;100.00;100724.72;5080734;27;46052;-76
2022/06/25 03:56:08;;;;;;;;;0.33;0.00;;;;;21.67;100.00;100719.28;5098358;27;45803;-76
2022/06/25 03:58:33;;;;;;;;;2.00;0.00;;;;;21.67;100.00;100718.41;5097707;27;60474;-75
2022/06/25 04:00:59;;;;;;;;;2.00;0.00;;;;;21.67;100.00;100716.59;5098782;27;58257;-76
2022/06/25 04:03:24;;;;;;;;;0.00;0.00;;;;;21.71;100.00;100717.38;5098210;27;57989;-76
2022/06/25 04:05:49;;;;;;;;;0.67;0.67;;;;;21.72;100.00;100719.13;5098444;27;47333;-76
2022/06/25 04:08:15;;;;;;;;;2.00;0.00;;;;;21.73;100.00;100725.38;5096512;27;45426;-76
2022/06/25 04:10:42;;;;;;;;;0.00;0.00;;;;;21.70;100.00;100729.94;5098346;27;45425;-77
2022/06/25 04:13:07;;;;;;;;;1.00;1.00;;;;;21.65;100.00;100729.22;5099175;27;45311;-76
2022/06/25 04:15:33;;;;;;;;;1.33;0.00;;;;;21.65;100.00;100736.41;5097740;27;50632;-77
2022/06/25 04:17:58;;;;;;;;;1.00;0.00;;;;;21.62;100.00;100728.44;5098259;27;45240;-77
2022/06/25 04:20:24;;;;;;;;;0.33;0.33;;;;;21.61;100.00;100727.56;5098394;27;45512;-76
2022/06/25 04:22:49;;;;;;;;;0.00;0.00;;;;;21.62;100.00;100731.13;5098783;27;45501;-76
2022/06/25 04:25:14;;;;;;;;;0.33;0.33;;;;;21.61;100.00;100735.63;5097811;27;64349;-76
2022/06/25 04:30:23;;;;;;;;;1.00;0.00;;;;;21.56;100.00;100728.69;5098602;27;45484;-76
2022/06/25 04:32:49;;;;;;;;;0.00;0.00;;;;;21.58;100.00;100742.97;5097632;27;45768;-77
2022/06/25 04:35:14;;;;;;;;;0.00;0.00;;;;;21.56;100.00;100739.44;5079604;27;66533;-76
2022/06/25 04:37:39;;;;;;;;;0.00;0.00;;;;;21.52;100.00;100743.16;5097839;27;49406;-76
2022/06/25 04:40:05;;;;;;;;;0.00;0.00;;;;;21.53;100.00;100755.69;5097248;27;64386;-76
2022/06/25 04:42:31;;;;;;;;;2.00;0.00;;;;;21.52;100.00;100746.75;5098203;27;45540;-77
2022/06/25 04:44:56;;;;;;;;;0.00;0.00;;;;;21.52;100.00;100741.38;5097619;27;65336;-77
2022/06/25 04:47:21;;;;;;;;;0.67;0.00;;;;;21.54;100.00;100760.97;5097625;27;45408;-76
2022/06/25 04:49:47;;;;;;;;;2.00;0.67;;;;;21.54;100.00;100763.66;5097701;27;62128;-76
2022/06/25 04:52:12;;;;;;;;;1.00;1.00;;;;;21.56;100.00;100760.91;5097569;27;45592;-76
2022/06/25 04:54:37;;;;;;;;;0.00;0.00;;;;;21.58;100.00;100751.00;5097184;27;68843;-76
2022/06/25 04:57:03;;;;;;;;;1.67;1.00;;;;;21.58;100.00;100756.38;5094535;27;45338;-76
2022/06/25 04:59:28;;;;;;;;;0.00;0.00;;;;;21.62;100.00;100758.00;5098171;27;45404;-76
2022/06/25 05:01:54;;;;;;;;;2.00;0.00;;;;;21.62;100.00;100766.06;5096844;27;48712;-76
2022/06/25 05:04:19;;;;;;;;;0.00;0.00;;;;;21.63;100.00;100766.03;5097300;27;45455;-76
2022/06/25 05:06:45;;;;;;;;;0.00;0.00;;;;;21.63;100.00;100767.84;5097296;27;45471;-76
2022/06/25 05:09:11;;;;;;;;;1.00;1.00;;;;;21.66;100.00;100779.34;5097415;27;45481;-76
2022/06/25 05:11:37;;;;;;;;;2.00;0.67;;;;;21.69;100.00;100775.69;5079022;27;45442;-76
2022/06/25 05:14:02;;;;;;;;;0.00;0.00;;;;;21.75;100.00;100778.16;5097820;27;45985;-76
2022/06/25 05:16:28;;;;;;;;;0.67;0.67;;;;;21.81;100.00;100787.81;5097837;27;45467;-77
2022/06/25 05:18:53;;;;;;;;;4.00;0.00;;;;;21.83;100.00;100785.94;5097078;27;61544;-76
2022/06/25 05:21:19;;;;;;;;;0.33;0.33;;;;;21.84;100.00;100783.22;5089170;27;45541;-76
2022/06/25 05:23:45;;;;;;;;;0.00;0.00;;;;;21.88;100.00;100798.25;5097327;27;70780;-76
2022/06/25 05:26:10;;;;;;;;;0.00;0.00;;;;;21.90;100.00;100800.91;5098242;27;45481;-76
2022/06/25 05:28:36;;;;;;;;;1.00;1.00;;;;;21.87;100.00;100798.31;5098199;27;45330;-76
2022/06/25 05:31:02;;;;;;;;;0.00;0.00;;;;;21.88;100.00;100794.69;5098209;27;45443;-76
2022/06/25 05:33:27;;;;;;;;;2.00;1.00;;;;;21.84;100.00;100787.66;5097456;27;46322;-76
2022/06/25 05:35:52;;;;;;;;;1.00;0.00;;;;;21.83;100.00;100791.31;5097194;27;61185;-76
2022/06/25 05:38:18;;;;;;;;;2.00;0.33;;;;;21.85;100.00;100801.09;5080105;27;45343;-76
2022/06/25 05:40:43;;;;;;;;;0.00;0.00;;;;;21.84;100.00;100806.50;5098064;27;45383;-76
2022/06/25 05:43:09;;;;;;;;;3.00;0.00;;;;;21.84;100.00;100810.09;5097384;27;64823;-77
2022/06/25 05:45:34;;;;;;;;;0.67;0.67;;;;;21.84;100.00;100803.81;5097413;27;47701;-77
2022/06/25 05:48:00;;;;;;;;;0.33;0.33;;;;;21.83;100.00;100794.88;5096889;27;45331;-76
2022/06/25 05:50:25;;;;;;;;;0.00;0.00;;;;;21.88;100.00;100802.78;5096465;27;45390;-75
2022/06/25 05:52:50;;;;;;;;;1.00;1.00;;;;;21.87;98.80;100796.50;5097247;27;46177;-77
2022/06/25 05:55:16;;;;;;;;;0.00;0.00;;;;;21.89;97.70;100791.06;5096783;27;45447;-77
2022/06/25 05:57:42;;;;;;;;;2.00;0.33;;;;;21.90;97.66;100790.16;5091572;27;50221;-75
2022/06/25 06:00:10;;;;;;;;;2.67;1.00;;;;;21.92;96.92;100791.84;5096530;27;45453;-76
2022/06/25 06:02:36;;;;;;;;;1.00;1.00;;;;;21.95;96.98;100797.13;5096398;27;47449;-76
2022/06/25 06:05:02;;;;;;;;;1.00;1.00;;;;;22.01;96.92;100808.59;5217319;22;45399;-77
2022/06/25 06:07:28;;;;;;;;;1.67;1.00;;;;;22.00;94.00;100809.50;5078297;27;45409;-77
2022/06/25 06:09:53;;;;;;;;;1.33;1.33;;;;;21.96;94.72;100798.88;5096453;27;53714;-76
2022/06/25 06:12:18;;;;;;;;;3.33;1.00;;;;;21.93;94.26;100793.59;5096260;27;50256;-77
2022/06/25 06:14:44;;;;;;;;;1.00;1.00;;;;;21.93;94.39;100796.28;5095373;27;45554;-76
2022/06/25 06:17:09;;;;;;;;;1.00;1.00;;;;;21.91;94.38;100806.22;5095747;27;63570;-76
2022/06/25 06:19:35;;;;;;;;;2.00;1.00;;;;;21.90;94.37;100807.16;5088559;27;46079;-76
2022/06/25 06:22:00;;;;;;;;;1.00;1.00;;;;;21.91;93.85;100810.72;5094627;27;45807;-75
2022/06/25 06:24:25;;;;;;;;;1.67;1.00;;;;;21.89;94.30;100813.50;5095563;27;45223;-76
2022/06/25 06:26:51;;;;;;;;;1.00;1.00;;;;;21.89;94.05;100815.28;5095009;27;60303;-75
2022/06/25 06:29:17;;;;;;;;;4.33;2.00;;;;;21.85;92.59;100803.78;5092927;27;50010;-75
2022/06/25 06:31:43;;;;;;;;;1.67;1.00;;;;;21.87;91.75;100804.59;5092923;27;46558;-76
2022/06/25 06:34:08;;;;;;;;;2.00;1.00;;;;;21.92;92.18;100813.34;5095772;27;45419;-75
2022/06/25 06:36:34;;;;;;;;;2.00;1.00;;;;;22.00;92.11;100802.34;5096178;27;45202;-76
2022/06/25 06:38:59;;;;;;;;;1.67;1.00;;;;;22.08;91.43;100815.50;5096432;27;45550;-75
2022/06/25 06:41:24;;;;;;;;;0.00;0.00;;;;;22.08;90.49;100810.13;5095978;27;64044;-75
2022/06/25 06:43:50;;;;;;;;;2.33;1.00;;;;;22.10;91.14;100814.53;5097144;27;45362;-75
2022/06/25 06:46:15;;;;;;;;;1.67;0.00;;;;;22.14;90.26;100824.22;5095508;27;59065;-76
2022/06/25 06:48:40;;;;;;;;;2.00;0.00;;;;;22.13;89.56;100819.78;5078176;27;61058;-75
2022/06/25 06:51:06;;;;;;;;;2.00;1.00;;;;;22.05;88.42;100804.84;5096803;27;45677;-76
2022/06/25 06:53:32;;;;;;;;;0.33;0.33;;;;;22.05;88.89;100811.13;5097059;27;45483;-75
2022/06/25 06:55:57;;;;;;;;;4.00;1.00;;;;;22.04;89.72;100817.41;5096103;27;45300;-77
2022/06/25 06:58:23;;;;;;;;;0.00;0.00;;;;;22.04;89.87;100809.34;5094644;27;62830;-76
2022/06/25 07:00:48;;;;;;;;;1.00;1.00;;;;;22.03;90.11;100810.28;5096023;27;53846;-76
2022/06/25 07:03:14;;;;;;;;;5.33;1.00;;;;;22.08;89.76;100812.81;5095252;27;45369;-76
2022/06/25 07:05:39;;;;;;;;;2.00;1.00;;;;;22.10;89.57;100813.59;5095012;27;50854;-77
2022/06/25 07:08:04;;;;;;;;;0.00;0.00;;;;;22.12;89.65;100818.03;5095193;27;57136;-76
2022/06/25 07:10:30;;;;;;;;;2.00;0.33;;;;;22.14;89.91;100808.09;5095820;27;46577;-76
2022/06/25 07:12:55;;;;;;;;;2.00;0.67;;;;;22.18;89.76;100811.56;5095165;27;64850;-75
2022/06/25 07:15:21;;;;;;;;;0.00;0.00;;;;;22.21;89.95;100824.88;5096041;27;45588;-77
2022/06/25 07:17:46;;;;;;;;;2.00;0.00;;;;;22.23;89.81;100825.72;5095183;27;45461;-76
2022/06/25 07:20:11;;;;;;;;;1.33;0.00;;;;;22.25;90.30;100831.03;5088933;27;65890;-75
2022/06/25 07:22:37;;;;;;;;;1.00;1.00;;;;;22.27;90.53;100823.81;5094873;27;45388;-75
2022/06/25 07:25:03;;;;;;;;;1.00;1.00;;;;;22.30;90.22;100827.22;5095097;27;57092;-74
2022/06/25 07:27:29;;;;;;;;;3.00;1.00;;;;;22.36;90.45;100827.00;5080537;27;45572;-76
2022/06/25 07:29:54;;;;;;;;;1.00;1.00;;;;;22.42;90.14;100836.66;5097482;27;46497;-76
2022/06/25 07:32:19;;;;;;;;;0.00;0.00;;;;;22.45;89.40;100833.84;5097401;27;52812;-73
2022/06/25 07:34:45;;;;;;;;;0.33;0.33;;;;;22.46;87.96;100835.59;5097811;27;61517;-73
2022/06/25 07:37:10;;;;;;;;;0.67;0.00;;;;;22.37;87.45;100833.25;5101805;27;46310;-73
2022/06/25 07:39:35;;;;;;;;;0.00;0.00;;;;;22.23;87.11;100837.34;5096702;27;65211;-73
2022/06/25 07:42:01;;;;;;;;;2.33;1.00;;;;;22.11;86.83;100837.81;5097849;27;57040;-73
2022/06/25 07:44:26;;;;;;;;;0.00;0.00;;;;;22.11;86.60;100845.00;5098880;27;49549;-73
2022/06/25 07:46:51;;;;;;;;;0.00;0.00;;;;;22.06;86.25;100839.75;5098052;27;58751;-73
2022/06/25 07:49:17;;;;;;;;;0.67;0.00;;;;;22.04;86.70;100841.59;5097492;27;67722;-72
2022/06/25 07:51:57;;;;;;;;;0.00;0.00;;;;;22.03;87.38;100841.66;5093432;27;65711;-72
2022/06/25 07:54:28;;;;;;;;;0.00;0.00;;;;;22.04;87.32;100838.03;5097976;27;45347;-69
2022/06/25 07:56:53;;;;;;;;;2.00;1.00;;;;;22.06;87.85;100847.81;5097377;27;46051;-70
2022/06/25 07:59:19;;;;;;;;;1.00;1.00;;;;;22.07;87.62;100859.47;5094616;27;45608;-71
2022/06/25 08:01:45;;;;;;;;;0.00;0.00;;;;;22.09;88.52;100854.88;5095913;27;45462;-72
2022/06/25 08:04:10;;;;;;;;;0.00;0.00;;;;;22.08;87.69;100858.53;5095763;27;45544;-72
2022/06/25 08:06:38;;;;;;;;;1.00;0.67;;;;;22.07;87.46;100863.03;5097502;27;45727;-72
2022/06/25 08:09:04;;;;;;;;;2.00;0.00;;;;;22.02;84.31;100856.06;5092353;27;47466;-73
2022/06/25 08:11:30;;;;;;;;;0.67;0.00;;;;;21.96;84.13;100852.66;5095107;27;45443;-72
2022/06/25 08:13:56;;;;;;;;;0.67;0.33;;;;;21.94;83.26;100859.00;5096154;27;45504;-72
2022/06/25 08:16:23;;;;;;;;;0.33;0.33;;;;;21.90;82.21;100869.00;5097421;27;45460;-73
2022/06/25 08:18:49;;;;;;;;;1.00;0.00;;;;;21.85;81.31;100868.28;5097457;27;46670;-72
2022/06/25 08:21:14;;;;;;;;;2.33;1.00;;;;;21.79;82.52;100862.25;5096068;27;45456;-72
2022/06/25 08:23:39;;;;;;;;;0.33;0.33;;;;;21.74;82.11;100858.84;5096922;27;61889;-73
2022/06/25 08:26:05;;;;;;;;;0.00;0.00;;;;;21.74;82.92;100859.72;5096865;27;59610;-72
2022/06/25 08:28:30;;;;;;;;;1.00;1.00;;;;;21.75;83.96;100865.97;5096982;27;60765;-74
2022/06/25 08:30:55;;;;;;;;;1.00;1.00;;;;;21.72;84.27;100864.25;5098144;27;45304;-74
2022/06/25 08:33:21;;;;;;;;;3.00;0.00;;;;;21.73;84.44;100862.44;5095660;27;45635;-75
2022/06/25 08:35:46;;;;;;;;;2.00;0.00;;;;;21.73;85.18;100868.69;5096477;27;45585;-75
2022/06/25 08:38:12;;;;;;;;;0.67;0.67;;;;;21.71;85.58;100867.88;5093174;27;70171;-75
2022/06/25 08:40:37;;;;;;;;;0.33;0.33;;;;;21.68;86.07;100882.31;5095088;27;45541;-74
2022/06/25 08:43:04;;;;;;;;;2.00;1.00;;;;;21.62;87.05;100879.81;5097691;27;45524;-74
2022/06/25 08:45:29;;;;;;;;;1.67;1.00;;;;;21.53;87.24;100879.25;5097909;27;45462;-74
2022/06/25 08:47:58;;;;;;;;;3.00;1.00;;;;;21.53;87.43;100876.59;5095234;27;68212;-74
2022/06/25 08:50:23;;;;;;;;;0.33;0.33;;;;;21.52;88.04;100878.38;5076917;27;45678;-74
2022/06/25 08:52:50;;;;;;;;;2.00;1.00;;;;;21.52;88.67;100875.72;5094870;27;66137;-74
2022/06/25 08:55:30;;;;;;;;;5.00;1.00;;;;;21.52;89.15;100882.84;5094052;27;45572;-74
2022/06/25 08:57:56;;;;;;;;;0.00;0.00;;;;;21.57;89.42;100880.91;5093859;27;46564;-73
2022/06/25 09:00:22;;;;;;;;;1.00;1.00;;;;;21.64;90.40;100882.47;5095805;27;45410;-73
2022/06/25 09:02:48;;;;;;;;;1.00;1.00;;;;;21.70;90.70;100884.94;5092108;27;45432;-74
2022/06/25 09:05:13;;;;;;;;;2.33;1.00;;;;;21.71;92.45;100889.38;5098285;27;45968;-74
2022/06/25 09:07:51;;;;;;;;;4.00;1.00;;;;;21.68;92.22;100886.81;5096518;27;61973;-75
2022/06/25 09:10:20;;;;;;;;;2.00;1.00;;;;;21.67;93.25;100887.72;5097922;27;45291;-74
2022/06/25 09:12:53;;;;;;;;;2.00;2.00;;;;;21.66;93.85;100896.72;5093559;27;45497;-74
2022/06/25 09:15:29;;;;;;;;;3.67;2.00;;;;;21.67;94.48;100895.78;5097712;27;45182;-74
2022/06/25 09:17:55;;;;;;;;;2.00;2.00;;;;;21.65;93.70;100893.16;5097609;27;46704;-74
2022/06/25 09:20:21;;;;;;;;;3.00;1.33;;;;;21.67;93.99;100883.22;5097582;27;45623;-74
2022/06/25 09:22:58;;;;;;;;;2.00;2.00;;;;;21.71;93.27;100878.63;5098127;27;45440;-74
2022/06/25 09:25:29;;;;;;;;;2.00;2.00;;;;;21.82;93.62;100884.50;5098239;27;45437;-72
2022/06/25 09:27:56;;;;;;;;;2.33;2.00;;;;;21.94;93.04;100875.13;5097115;27;46654;-74
2022/06/25 09:30:22;;;;;;;;;1.00;1.00;;;;;22.08;92.25;100874.66;5097424;27;45327;-74
2022/06/25 09:32:51;;;;;;;;;3.00;2.00;;;;;22.21;91.81;100867.91;5097815;27;45280;-75
2022/06/25 09:35:42;;;;;;;;;1.00;1.00;;;;;22.28;89.87;100858.72;5079504;27;45553;-75
2022/06/25 09:38:09;;;;;;;;;1.00;1.00;;;;;22.30;89.78;100854.13;5097347;27;46578;-74
2022/06/25 09:40:36;;;;;;;;;1.00;1.00;;;;;22.32;88.98;100860.34;5096259;27;45508;-75
2022/06/25 09:43:17;;;;;;;;;1.00;1.00;;;;;22.28;88.88;100869.47;5097461;27;45536;-75
2022/06/25 09:45:50;;;;;;;;;2.67;2.00;;;;;22.21;89.04;100860.75;5097432;27;45427;-74
2022/06/25 09:48:18;;;;;;;;;2.00;2.00;;;;;22.20;89.13;100855.41;5096876;27;46506;-74
2022/06/25 09:50:44;;;;;;;;;3.00;1.00;;;;;22.27;90.01;100856.97;5097542;27;45415;-74
2022/06/25 09:53:10;;;;;;;;;1.67;1.00;;;;;22.34;88.62;100860.28;5097597;27;45733;-74
2022/06/25 09:55:37;;;;;;;;;4.00;1.00;;;;;22.30;88.15;100856.81;5096463;27;64693;-74
2022/06/25 09:58:03;;;;;;;;;1.33;1.33;;;;;22.30;88.63;100858.63;5096971;27;47717;-74
2022/06/25 10:00:30;;;;;;;;;1.67;1.67;;;;;22.31;88.71;100863.94;5097503;27;45372;-74
2022/06/25 10:02:58;;;;;;;;;0.67;0.67;;;;;22.32;88.75;100863.03;5097109;27;45237;-74
2022/06/25 10:05:44;;;;;;;;;4.00;2.00;;;;;22.38;89.27;100859.25;5099756;27;45241;-74
2022/06/25 10:08:11;;;;;;;;;2.00;2.00;;;;;22.39;88.74;100872.63;5091957;27;59782;-74
2022/06/25 10:10:46;;;;;;;;;3.00;1.67;;;;;22.37;87.53;100861.06;5074640;27;45351;-74
2022/06/25 10:13:13;;;;;;;;;2.00;2.00;;;;;22.37;87.73;100858.38;5097046;27;45515;-75
2022/06/25 10:15:38;;;;;;;;;4.67;2.00;;;;;22.32;87.01;100864.81;5097125;27;46431;-74
2022/06/25 10:18:09;;;;;;;;;2.67;1.00;;;;;22.26;87.06;100863.25;5095594;27;47352;-74
2022/06/25 10:20:36;;;;;;;;;2.33;1.33;;;;;22.16;85.99;100865.41;5078522;27;45569;-73
2022/06/25 10:23:03;;;;;;;;;4.00;1.67;;;;;22.16;87.29;100864.53;5097149;27;45446;-74
2022/06/25 10:25:29;;;;;;;;;1.33;1.00;;;;;22.21;87.78;100855.38;5086896;27;45577;-72
2022/06/25 10:28:07;;;;;;;;;2.33;2.00;;;;;22.33;88.72;100858.53;5090487;27;47564;-74
2022/06/25 10:30:42;;;;;;;;;4.00;2.00;;;;;22.48;87.57;100848.06;5091206;27;45473;-73
2022/06/25 10:34:12;;;;;;;;;2.67;0.00;;;;;22.71;87.79;100843.63;5102596;27;45485;-74
2022/06/25 10:36:48;;;;;;;;;3.00;2.00;;;;;22.90;86.36;100841.97;5097754;27;45505;-75
2022/06/25 10:39:22;;;;;;;;;3.00;1.00;;;;;23.02;86.06;100846.00;5096944;27;47324;-74
2022/06/25 10:45:31;;;;;;;;;4.33;2.33;;;;;23.26;85.11;100849.50;5091041;27;45524;-77
2022/06/25 10:47:58;;;;;;;;;3.67;2.67;;;;;23.33;84.50;100852.81;5096000;27;46431;-73
2022/06/25 10:50:23;;;;;;;;;4.33;2.33;;;;;23.36;83.92;100852.69;5096680;27;45646;-74
2022/06/25 10:53:03;;;;;;;;;3.33;2.67;;;;;23.32;81.45;100857.31;5096531;27;45235;-74
2022/06/25 10:55:39;;;;;;;;;1.00;1.00;;;;;23.25;80.72;100858.53;5097139;27;45475;-75
2022/06/25 10:58:11;;;;;;;;;2.00;2.00;;;;;23.16;80.86;100849.00;5092409;27;45393;-72
2022/06/25 11:01:00;;;;;;;;;7.33;2.00;;;;;23.15;80.67;100852.63;5098284;27;46725;-72
2022/06/25 11:03:29;;;;;;;;;2.67;2.67;;;;;23.19;79.50;100864.19;5099352;27;45441;-72
2022/06/25 11:06:21;;;;;;;;;3.67;2.00;;;;;23.22;81.12;100848.78;5100388;27;45216;-73
2022/06/25 11:08:47;;;;;;;;;4.00;1.00;;;;;23.33;80.95;100845.63;5088618;27;45473;-73
2022/06/25 11:11:13;;;;;;;;;4.33;1.67;;;;;23.42;81.20;100855.13;5100121;27;47770;-73
2022/06/25 11:13:41;;;;;;;;;2.33;2.33;;;;;23.48;81.53;100841.41;5099958;27;45411;-71
2022/06/25 11:16:14;;;;;;;;;2.00;2.00;;;;;23.55;81.14;100859.09;5097656;27;45335;-71
2022/06/25 11:18:51;;;;;;;;;3.67;3.00;;;;;23.53;81.63;100859.13;5097200;27;45430;-72
2022/06/25 11:21:29;;;;;;;;;6.00;2.00;;;;;23.55;82.10;100860.91;5098389;27;47805;-71
2022/06/25 11:24:13;;;;;;;;;4.67;2.00;;;;;23.56;81.73;100849.19;5100049;27;45591;-74
2022/06/25 11:29:27;;;;;;;;;3.33;3.00;;;;;23.56;81.20;100858.13;5099941;27;45494;-74
2022/06/25 11:31:55;;;;;;;;;2.00;2.00;;;;;23.52;80.52;100869.97;5099247;27;46530;-74
2022/06/25 11:34:22;;;;;;;;;3.00;2.00;;;;;23.50;81.64;100871.88;5099674;27;45378;-72
2022/06/25 11:37:00;;;;;;;;;2.00;2.00;;;;;23.53;81.59;100874.41;5099059;27;45498;-72